sensor_id;sensor_type;location;lat;lon;timestamp;noise_LAeq;noise_LA_min;noise_LA_max;noise_LA01;noise_LA95
45109;Laerm;30447;48.742;8.972;2023-04-01T00:01:00;39.89;35.94;44.23;;
45109;Laerm;30447;48.742;8.972;2023-04-01T00:03:28;39.05;35.04;43.04;;
45109;Laerm;30447;48.742;8.972;2023-04-01T00:05:57;38.94;35.36;42.36;;
45109;Laerm;30447;48.742;8.972;2023-04-01T00:08:23;39.41;35.04;42.93;;
45109;Laerm;30447;48.742;8.972;2023-04-01T00:10:51;39.39;35.86;44.97;;
45109;Laerm;30447;48.742;8.972;2023-04-01T00:13:17;39.75;35.94;42.71;;
45109;Laerm;30447;48.742;8.972;2023-04-01T00:15:43;39.61;35.66;43.04;;
45109;Laerm;30447;48.742;8.972;2023-04-01T00:18:11;38.49;34.31;40.89;;
45109;Laerm;30447;48.742;8.972;2023-04-01T00:20:38;39.50;35.04;49.10;;
45109;Laerm;30447;48.742;8.972;2023-04-01T00:23:04;39.35;35.36;44.80;;
45109;Laerm;30447;48.742;8.972;2023-04-01T00:25:31;39.52;35.36;43.72;;
45109;Laerm;30447;48.742;8.972;2023-04-01T00:27:57;39.53;36.20;45.45;;
45109;Laerm;30447;48.742;8.972;2023-04-01T00:30:24;39.65;35.36;49.66;;
45109;Laerm;30447;48.742;8.972;2023-04-01T00:32:53;41.53;36.91;47.88;;
45109;Laerm;30447;48.742;8.972;2023-04-01T00:35:20;38.58;33.97;41.48;;
45109;Laerm;30447;48.742;8.972;2023-04-01T00:37:47;40.13;34.69;44.31;;
45109;Laerm;30447;48.742;8.972;2023-04-01T00:40:33;40.21;36.20;48.37;;
45109;Laerm;30447;48.742;8.972;2023-04-01T00:43:00;40.06;35.66;55.08;;
45109;Laerm;30447;48.742;8.972;2023-04-01T00:45:39;38.84;35.36;42.16;;
45109;Laerm;30447;48.742;8.972;2023-04-01T00:48:27;38.99;35.04;44.23;;
45109;Laerm;30447;48.742;8.972;2023-04-01T00:53:33;39.74;35.66;43.54;;
45109;Laerm;30447;48.742;8.972;2023-04-01T00:58:57;41.24;35.66;50.67;;
45109;Laerm;30447;48.742;8.972;2023-04-01T01:01:25;38.99;34.69;45.63;;
45109;Laerm;30447;48.742;8.972;2023-04-01T01:03:52;38.64;34.31;49.50;;
45109;Laerm;30447;48.742;8.972;2023-04-01T01:09:28;38.52;33.90;42.29;;
45109;Laerm;30447;48.742;8.972;2023-04-01T01:12:00;38.61;34.69;42.41;;
45109;Laerm;30447;48.742;8.972;2023-04-01T01:14:48;38.85;35.59;43.90;;
45109;Laerm;30447;48.742;8.972;2023-04-01T01:26:09;38.31;34.31;47.50;;
45109;Laerm;30447;48.742;8.972;2023-04-01T01:31:54;38.27;32.93;49.81;;
45109;Laerm;30447;48.742;8.972;2023-04-01T01:37:05;38.61;34.69;41.82;;
45109;Laerm;30447;48.742;8.972;2023-04-01T01:39:36;38.53;33.90;44.03;;
45109;Laerm;30447;48.742;8.972;2023-04-01T01:42:06;38.39;34.69;43.55;;
45109;Laerm;30447;48.742;8.972;2023-04-01T01:44:37;38.50;33.90;44.69;;
45109;Laerm;30447;48.742;8.972;2023-04-01T01:47:05;38.91;34.69;47.81;;
45109;Laerm;30447;48.742;8.972;2023-04-01T01:49:33;38.94;35.04;61.29;;
45109;Laerm;30447;48.742;8.972;2023-04-01T01:52:02;39.60;35.66;43.58;;
45109;Laerm;30447;48.742;8.972;2023-04-01T01:54:29;38.78;34.69;42.09;;
45109;Laerm;30447;48.742;8.972;2023-04-01T01:57:07;38.42;34.31;43.86;;
45109;Laerm;30447;48.742;8.972;2023-04-01T01:59:38;38.43;34.69;45.57;;
45109;Laerm;30447;48.742;8.972;2023-04-01T02:02:09;38.69;34.31;44.65;;
45109;Laerm;30447;48.742;8.972;2023-04-01T02:04:40;38.92;33.90;44.69;;
45109;Laerm;30447;48.742;8.972;2023-04-01T02:07:24;38.91;34.69;43.04;;
45109;Laerm;30447;48.742;8.972;2023-04-01T02:09:51;39.10;34.69;48.31;;
45109;Laerm;30447;48.742;8.972;2023-04-01T02:12:20;38.79;34.31;42.76;;
45109;Laerm;30447;48.742;8.972;2023-04-01T02:15:07;38.64;35.04;42.88;;
45109;Laerm;30447;48.742;8.972;2023-04-01T02:17:42;38.69;35.01;44.51;;
45109;Laerm;30447;48.742;8.972;2023-04-01T02:20:16;38.33;33.90;45.27;;
45109;Laerm;30447;48.742;8.972;2023-04-01T02:22:48;38.95;35.36;44.62;;
45109;Laerm;30447;48.742;8.972;2023-04-01T02:25:20;38.47;33.90;43.09;;
45109;Laerm;30447;48.742;8.972;2023-04-01T02:27:49;38.22;34.31;40.89;;
45109;Laerm;30447;48.742;8.972;2023-04-01T02:30:17;38.72;34.69;43.54;;
45109;Laerm;30447;48.742;8.972;2023-04-01T02:32:45;39.26;35.66;42.88;;
45109;Laerm;30447;48.742;8.972;2023-04-01T02:35:15;38.75;35.04;43.90;;
45109;Laerm;30447;48.742;8.972;2023-04-01T02:37:44;38.55;34.69;42.65;;
45109;Laerm;30447;48.742;8.972;2023-04-01T02:40:14;38.46;34.69;42.76;;
45109;Laerm;30447;48.742;8.972;2023-04-01T02:42:41;38.89;35.36;43.34;;
45109;Laerm;30447;48.742;8.972;2023-04-01T02:45:08;39.14;35.66;51.47;;
45109;Laerm;30447;48.742;8.972;2023-04-01T02:47:35;40.01;36.20;48.37;;
45109;Laerm;30447;48.742;8.972;2023-04-01T02:50:02;39.28;33.90;44.23;;
45109;Laerm;30447;48.742;8.972;2023-04-01T02:52:29;40.60;35.36;44.76;;
45109;Laerm;30447;48.742;8.972;2023-04-01T02:54:57;38.86;34.69;41.68;;
45109;Laerm;30447;48.742;8.972;2023-04-01T02:57:24;39.13;35.66;45.80;;
45109;Laerm;30447;48.742;8.972;2023-04-01T02:59:51;39.12;35.04;43.68;;
45109;Laerm;30447;48.742;8.972;2023-04-01T03:02:18;40.40;35.04;46.43;;
45109;Laerm;30447;48.742;8.972;2023-04-01T03:04:44;39.25;34.69;44.54;;
45109;Laerm;30447;48.742;8.972;2023-04-01T03:07:11;38.37;34.69;40.98;;
45109;Laerm;30447;48.742;8.972;2023-04-01T03:09:38;38.85;35.36;42.82;;
45109;Laerm;30447;48.742;8.972;2023-04-01T03:12:05;39.48;35.66;45.63;;
45109;Laerm;30447;48.742;8.972;2023-04-01T03:14:32;40.27;35.66;61.63;;
45109;Laerm;30447;48.742;8.972;2023-04-01T03:16:58;39.74;34.69;52.90;;
45109;Laerm;30447;48.742;8.972;2023-04-01T03:19:25;39.05;35.36;45.89;;
45109;Laerm;30447;48.742;8.972;2023-04-01T03:21:51;38.97;35.04;44.92;;
45109;Laerm;30447;48.742;8.972;2023-04-01T03:24:19;39.88;35.36;53.41;;
45109;Laerm;30447;48.742;8.972;2023-04-01T03:26:46;40.26;36.20;48.51;;
45109;Laerm;30447;48.742;8.972;2023-04-01T03:29:13;40.01;35.36;50.02;;
45109;Laerm;30447;48.742;8.972;2023-04-01T03:31:41;40.73;36.91;50.02;;
45109;Laerm;30447;48.742;8.972;2023-04-01T03:34:08;40.77;36.91;53.74;;
45109;Laerm;30447;48.742;8.972;2023-04-01T03:36:35;40.89;36.69;51.77;;
45109;Laerm;30447;48.742;8.972;2023-04-01T03:39:01;39.76;36.45;45.51;;
45109;Laerm;30447;48.742;8.972;2023-04-01T03:41:29;39.69;36.69;45.20;;
45109;Laerm;30447;48.742;8.972;2023-04-01T03:43:56;40.20;36.45;44.90;;
45109;Laerm;30447;48.742;8.972;2023-04-01T03:46:23;40.73;37.52;45.99;;
45109;Laerm;30447;48.742;8.972;2023-04-01T03:48:49;41.24;36.77;51.80;;
45109;Laerm;30447;48.742;8.972;2023-04-01T03:51:16;42.72;37.70;56.12;;
45109;Laerm;30447;48.742;8.972;2023-04-01T03:53:42;43.44;37.52;58.39;;
45109;Laerm;30447;48.742;8.972;2023-04-01T03:56:09;43.01;37.52;57.81;;
45109;Laerm;30447;48.742;8.972;2023-04-01T03:58:36;44.12;37.52;57.01;;
45109;Laerm;30447;48.742;8.972;2023-04-01T04:01:13;48.76;38.05;65.59;;
45109;Laerm;30447;48.742;8.972;2023-04-01T04:03:40;51.25;38.05;66.35;;
45109;Laerm;30447;48.742;8.972;2023-04-01T04:06:11;51.16;38.21;65.41;;
45109;Laerm;30447;48.742;8.972;2023-04-01T04:08:39;51.65;38.47;67.55;;
45109;Laerm;30447;48.742;8.972;2023-04-01T04:11:06;51.77;37.88;68.17;;
45109;Laerm;30447;48.742;8.972;2023-04-01T04:13:33;54.23;38.37;67.59;;
45109;Laerm;30447;48.742;8.972;2023-04-01T04:15:59;54.14;39.46;68.04;;
45109;Laerm;30447;48.742;8.972;2023-04-01T04:18:26;53.58;39.70;69.47;;
45109;Laerm;30447;48.742;8.972;2023-04-01T04:20:52;55.28;38.95;70.52;;
45109;Laerm;30447;48.742;8.972;2023-04-01T04:23:19;54.08;39.46;70.73;;
45109;Laerm;30447;48.742;8.972;2023-04-01T04:25:59;58.66;38.99;75.40;;
45109;Laerm;30447;48.742;8.972;2023-04-01T04:28:27;58.48;40.03;74.33;;
45109;Laerm;30447;48.742;8.972;2023-04-01T04:30:54;53.05;40.13;69.78;;
45109;Laerm;30447;48.742;8.972;2023-04-01T04:33:21;48.43;39.70;63.68;;
45109;Laerm;30447;48.742;8.972;2023-04-01T04:35:49;46.10;38.81;64.45;;
45109;Laerm;30447;48.742;8.972;2023-04-01T04:38:16;44.25;38.95;57.72;;
45109;Laerm;30447;48.742;8.972;2023-04-01T04:40:43;45.67;39.34;63.48;;
45109;Laerm;30447;48.742;8.972;2023-04-01T04:43:14;42.62;38.67;53.93;;
45109;Laerm;30447;48.742;8.972;2023-04-01T04:45:41;42.44;38.37;58.01;;
45109;Laerm;30447;48.742;8.972;2023-04-01T04:48:12;41.53;38.95;52.05;;
45109;Laerm;30447;48.742;8.972;2023-04-01T04:50:49;40.88;37.70;48.07;;
45109;Laerm;30447;48.742;8.972;2023-04-01T04:53:17;40.02;37.12;46.45;;
45109;Laerm;30447;48.742;8.972;2023-04-01T04:55:46;40.16;37.12;43.09;;
45109;Laerm;30447;48.742;8.972;2023-04-01T04:58:13;41.17;37.52;58.97;;
45109;Laerm;30447;48.742;8.972;2023-04-01T05:00:40;40.85;37.52;55.74;;
45109;Laerm;30447;48.742;8.972;2023-04-01T05:03:06;40.82;37.52;48.46;;
45109;Laerm;30447;48.742;8.972;2023-04-01T05:05:33;40.73;38.21;44.69;;
45109;Laerm;30447;48.742;8.972;2023-04-01T05:07:59;42.35;38.05;58.14;;
45109;Laerm;30447;48.742;8.972;2023-04-01T05:10:26;41.47;37.70;55.07;;
45109;Laerm;30447;48.742;8.972;2023-04-01T05:12:52;42.14;38.21;53.10;;
45109;Laerm;30447;48.742;8.972;2023-04-01T05:15:19;41.67;38.37;47.72;;
45109;Laerm;30447;48.742;8.972;2023-04-01T05:17:46;41.09;38.37;45.80;;
45109;Laerm;30447;48.742;8.972;2023-04-01T05:20:13;40.77;37.88;52.19;;
45109;Laerm;30447;48.742;8.972;2023-04-01T05:22:40;40.29;36.98;45.54;;
45109;Laerm;30447;48.742;8.972;2023-04-01T05:25:07;40.13;36.45;45.78;;
45109;Laerm;30447;48.742;8.972;2023-04-01T05:27:33;40.31;36.91;52.80;;
45109;Laerm;30447;48.742;8.972;2023-04-01T05:30:00;41.23;38.21;46.54;;
45109;Laerm;30447;48.742;8.972;2023-04-01T05:32:26;41.11;37.70;50.46;;
45109;Laerm;30447;48.742;8.972;2023-04-01T05:34:53;41.34;37.53;54.07;;
45109;Laerm;30447;48.742;8.972;2023-04-01T05:37:20;41.38;37.88;45.01;;
45109;Laerm;30447;48.742;8.972;2023-04-01T05:39:46;41.23;38.52;48.16;;
45109;Laerm;30447;48.742;8.972;2023-04-01T05:42:12;42.05;37.88;60.95;;
45109;Laerm;30447;48.742;8.972;2023-04-01T05:44:39;48.77;37.88;63.26;;
45109;Laerm;30447;48.742;8.972;2023-04-01T05:47:05;41.74;36.91;58.18;;
45109;Laerm;30447;48.742;8.972;2023-04-01T05:49:33;43.30;38.21;52.85;;
45109;Laerm;30447;48.742;8.972;2023-04-01T05:51:59;43.24;36.91;54.72;;
45109;Laerm;30447;48.742;8.972;2023-04-01T05:54:26;43.11;38.52;60.22;;
45109;Laerm;30447;48.742;8.972;2023-04-01T05:56:52;41.70;37.88;51.22;;
45109;Laerm;30447;48.742;8.972;2023-04-01T05:59:19;43.46;38.52;62.04;;
45109;Laerm;30447;48.742;8.972;2023-04-01T06:01:45;42.39;38.67;55.79;;
45109;Laerm;30447;48.742;8.972;2023-04-01T06:04:16;42.62;37.88;54.66;;
45109;Laerm;30447;48.742;8.972;2023-04-01T06:06:44;42.38;38.81;53.83;;
45109;Laerm;30447;48.742;8.972;2023-04-01T06:09:15;41.97;38.05;55.61;;
45109;Laerm;30447;48.742;8.972;2023-04-01T06:20:17;41.87;38.81;56.50;;
45109;Laerm;30447;48.742;8.972;2023-04-01T06:26:00;41.36;38.37;48.23;;
45109;Laerm;30447;48.742;8.972;2023-04-01T06:39:53;42.22;38.37;49.21;;
45109;Laerm;30447;48.742;8.972;2023-04-01T06:42:36;45.20;38.37;68.06;;
45109;Laerm;30447;48.742;8.972;2023-04-01T06:51:28;41.84;38.67;50.98;;
45109;Laerm;30447;48.742;8.972;2023-04-01T06:54:18;43.86;39.21;60.65;;
45109;Laerm;30447;48.742;8.972;2023-04-01T06:56:53;44.27;39.89;56.91;;
45109;Laerm;30447;48.742;8.972;2023-04-01T06:59:30;43.52;39.21;55.25;;
45109;Laerm;30447;48.742;8.972;2023-04-01T07:02:05;44.34;39.70;56.37;;
45109;Laerm;30447;48.742;8.972;2023-04-01T07:04:44;43.43;39.58;58.25;;
45109;Laerm;30447;48.742;8.972;2023-04-01T07:09:55;42.72;38.37;57.08;;
45109;Laerm;30447;48.742;8.972;2023-04-01T07:12:33;42.53;39.34;52.98;;
45109;Laerm;30447;48.742;8.972;2023-04-01T07:15:16;42.28;38.95;52.84;;
45109;Laerm;30447;48.742;8.972;2023-04-01T07:17:50;42.04;38.95;53.11;;
45109;Laerm;30447;48.742;8.972;2023-04-01T07:20:30;42.10;37.88;55.78;;
45109;Laerm;30447;48.742;8.972;2023-04-01T07:23:00;41.83;38.52;52.43;;
45109;Laerm;30447;48.742;8.972;2023-04-01T07:25:35;42.21;38.81;52.96;;
45109;Laerm;30447;48.742;8.972;2023-04-01T07:28:06;42.08;39.21;48.43;;
45109;Laerm;30447;48.742;8.972;2023-04-01T07:33:33;41.83;38.81;56.20;;
45109;Laerm;30447;48.742;8.972;2023-04-01T07:50:25;42.67;39.70;53.27;;
45109;Laerm;30447;48.742;8.972;2023-04-01T07:53:02;42.48;39.46;52.51;;
45109;Laerm;30447;48.742;8.972;2023-04-01T08:07:12;43.74;39.46;57.50;;
45109;Laerm;30447;48.742;8.972;2023-04-01T08:21:16;46.88;40.23;71.73;;
45109;Laerm;30447;48.742;8.972;2023-04-01T08:23:47;47.49;41.22;59.99;;
45109;Laerm;30447;48.742;8.972;2023-04-01T08:26:37;45.63;40.03;58.47;;
45109;Laerm;30447;48.742;8.972;2023-04-01T08:34:34;42.83;39.46;56.16;;
45109;Laerm;30447;48.742;8.972;2023-04-01T08:37:26;42.71;40.13;56.20;;
45109;Laerm;30447;48.742;8.972;2023-04-01T08:40:35;49.26;43.09;79.51;;
45109;Laerm;30447;48.742;8.972;2023-04-01T08:46:38;43.40;40.98;50.14;;
45109;Laerm;30447;48.742;8.972;2023-04-01T09:03:58;41.98;39.46;53.35;;
45109;Laerm;30447;48.742;8.972;2023-04-01T09:09:45;43.30;39.21;52.94;;
45109;Laerm;30447;48.742;8.972;2023-04-01T09:12:48;42.15;39.34;47.83;;
45109;Laerm;30447;48.742;8.972;2023-04-01T09:15:24;42.95;39.70;61.38;;
45109;Laerm;30447;48.742;8.972;2023-04-01T09:23:46;45.78;40.03;60.94;;
45109;Laerm;30447;48.742;8.972;2023-04-01T09:38:30;43.39;40.71;49.15;;
45109;Laerm;30447;48.742;8.972;2023-04-01T09:41:27;43.09;40.53;52.97;;
45109;Laerm;30447;48.742;8.972;2023-04-01T09:44:25;42.66;39.70;50.95;;
45109;Laerm;30447;48.742;8.972;2023-04-01T09:47:14;43.89;39.46;53.50;;
45109;Laerm;30447;48.742;8.972;2023-04-01T09:50:20;44.45;41.22;56.37;;
45109;Laerm;30447;48.742;8.972;2023-04-01T10:02:19;43.82;40.89;53.44;;
45109;Laerm;30447;48.742;8.972;2023-04-01T10:05:26;44.30;40.80;53.78;;
45109;Laerm;30447;48.742;8.972;2023-04-01T10:22:07;42.21;39.81;57.22;;
45109;Laerm;30447;48.742;8.972;2023-04-01T10:27:26;42.81;40.23;53.70;;
45109;Laerm;30447;48.742;8.972;2023-04-01T10:45:02;42.83;39.81;49.58;;
45109;Laerm;30447;48.742;8.972;2023-04-01T11:00:16;43.13;39.81;58.38;;
45109;Laerm;30447;48.742;8.972;2023-04-01T11:06:07;53.81;40.43;74.91;;
45109;Laerm;30447;48.742;8.972;2023-04-01T11:14:23;43.44;40.08;55.40;;
45109;Laerm;30447;48.742;8.972;2023-04-01T11:31:34;44.60;40.03;59.53;;
45109;Laerm;30447;48.742;8.972;2023-04-01T11:39:50;43.21;38.81;53.93;;
45109;Laerm;30447;48.742;8.972;2023-04-01T11:45:23;43.26;38.67;60.69;;
45109;Laerm;30447;48.742;8.972;2023-04-01T11:48:13;42.47;39.70;53.14;;
45109;Laerm;30447;48.742;8.972;2023-04-01T11:53:42;44.32;39.92;60.94;;
45109;Laerm;30447;48.742;8.972;2023-04-01T11:56:29;42.14;39.58;52.06;;
45109;Laerm;30447;48.742;8.972;2023-04-01T12:02:28;43.34;40.13;57.78;;
45109;Laerm;30447;48.742;8.972;2023-04-01T12:10:50;44.09;40.89;60.23;;
45109;Laerm;30447;48.742;8.972;2023-04-01T12:14:09;42.99;40.03;53.29;;
45109;Laerm;30447;48.742;8.972;2023-04-01T12:16:42;50.25;40.89;71.58;;
45109;Laerm;30447;48.742;8.972;2023-04-01T12:22:39;46.78;40.53;65.47;;
45109;Laerm;30447;48.742;8.972;2023-04-01T12:25:33;44.18;39.70;59.44;;
45109;Laerm;30447;48.742;8.972;2023-04-01T12:28:29;43.43;40.43;60.63;;
45109;Laerm;30447;48.742;8.972;2023-04-01T12:31:25;42.79;39.34;50.64;;
45109;Laerm;30447;48.742;8.972;2023-04-01T12:37:29;42.52;39.46;55.53;;
45109;Laerm;30447;48.742;8.972;2023-04-01T12:43:14;42.14;38.67;48.80;;
45109;Laerm;30447;48.742;8.972;2023-04-01T12:46:14;42.29;38.95;49.59;;
45109;Laerm;30447;48.742;8.972;2023-04-01T12:52:12;42.28;38.81;50.40;;
45109;Laerm;30447;48.742;8.972;2023-04-01T13:01:02;49.50;40.43;70.65;;
45109;Laerm;30447;48.742;8.972;2023-04-01T13:08:58;45.80;39.35;69.66;;
45109;Laerm;30447;48.742;8.972;2023-04-01T13:14:20;42.19;38.67;45.04;;
45109;Laerm;30447;48.742;8.972;2023-04-01T13:25:49;43.49;39.34;57.29;;
45109;Laerm;30447;48.742;8.972;2023-04-01T13:28:25;43.00;39.70;53.94;;
45109;Laerm;30447;48.742;8.972;2023-04-01T13:30:59;43.19;40.23;56.24;;
45109;Laerm;30447;48.742;8.972;2023-04-01T13:33:38;44.70;39.21;64.26;;
45109;Laerm;30447;48.742;8.972;2023-04-01T13:36:39;42.10;38.81;50.98;;
45109;Laerm;30447;48.742;8.972;2023-04-01T13:39:32;43.65;39.08;60.57;;
45109;Laerm;30447;48.742;8.972;2023-04-01T13:42:06;42.41;39.46;51.72;;
45109;Laerm;30447;48.742;8.972;2023-04-01T13:45:08;46.25;39.23;68.24;;
45109;Laerm;30447;48.742;8.972;2023-04-01T13:50:46;43.88;40.23;57.13;;
45109;Laerm;30447;48.742;8.972;2023-04-01T13:59:24;43.83;40.23;54.08;;
45109;Laerm;30447;48.742;8.972;2023-04-01T14:02:16;43.88;40.23;58.54;;
45109;Laerm;30447;48.742;8.972;2023-04-01T14:05:15;44.07;39.08;58.53;;
45109;Laerm;30447;48.742;8.972;2023-04-01T14:13:18;41.73;38.37;50.27;;
45109;Laerm;30447;48.742;8.972;2023-04-01T14:16:03;42.25;38.52;52.71;;
45109;Laerm;30447;48.742;8.972;2023-04-01T14:18:50;41.85;39.34;47.00;;
45109;Laerm;30447;48.742;8.972;2023-04-01T14:24:09;41.51;38.05;53.26;;
45109;Laerm;30447;48.742;8.972;2023-04-01T14:33:05;41.96;39.08;46.25;;
45109;Laerm;30447;48.742;8.972;2023-04-01T14:36:08;42.46;38.67;60.28;;
45109;Laerm;30447;48.742;8.972;2023-04-01T14:39:08;43.85;38.67;62.58;;
45109;Laerm;30447;48.742;8.972;2023-04-01T14:42:18;42.27;38.21;54.84;;
45109;Laerm;30447;48.742;8.972;2023-04-01T14:48:05;41.78;38.52;50.83;;
45109;Laerm;30447;48.742;8.972;2023-04-01T14:50:47;42.66;38.37;58.15;;
45109;Laerm;30447;48.742;8.972;2023-04-01T14:55:54;41.46;38.05;51.85;;
45109;Laerm;30447;48.742;8.972;2023-04-01T14:58:23;42.54;37.52;55.72;;
45109;Laerm;30447;48.742;8.972;2023-04-01T15:03:39;44.54;41.06;53.27;;
45109;Laerm;30447;48.742;8.972;2023-04-01T15:15:14;42.50;37.88;58.24;;
45109;Laerm;30447;48.742;8.972;2023-04-01T15:31:45;42.26;39.34;56.24;;
45109;Laerm;30447;48.742;8.972;2023-04-01T15:34:52;41.99;38.67;49.75;;
45109;Laerm;30447;48.742;8.972;2023-04-01T15:37:51;41.41;37.70;51.84;;
45109;Laerm;30447;48.742;8.972;2023-04-01T15:40:45;42.57;38.67;54.56;;
45109;Laerm;30447;48.742;8.972;2023-04-01T15:48:55;42.29;39.08;53.34;;
45109;Laerm;30447;48.742;8.972;2023-04-01T15:54:24;42.40;39.08;56.07;;
45109;Laerm;30447;48.742;8.972;2023-04-01T15:59:56;42.23;39.58;50.40;;
45109;Laerm;30447;48.742;8.972;2023-04-01T16:02:36;42.50;39.58;50.92;;
45109;Laerm;30447;48.742;8.972;2023-04-01T16:19:16;42.07;39.08;57.47;;
45109;Laerm;30447;48.742;8.972;2023-04-01T16:24:33;41.17;38.60;45.72;;
45109;Laerm;30447;48.742;8.972;2023-04-01T16:29:47;41.81;37.70;52.62;;
45109;Laerm;30447;48.742;8.972;2023-04-01T16:35:23;41.47;38.21;49.51;;
45109;Laerm;30447;48.742;8.972;2023-04-01T16:43:25;40.78;37.52;44.11;;
45109;Laerm;30447;48.742;8.972;2023-04-01T16:46:06;41.53;37.70;45.86;;
45109;Laerm;30447;48.742;8.972;2023-04-01T16:49:02;40.66;36.20;52.94;;
45109;Laerm;30447;48.742;8.972;2023-04-01T16:51:47;40.56;37.32;47.88;;
45109;Laerm;30447;48.742;8.972;2023-04-01T17:10:33;41.33;37.88;54.39;;
45109;Laerm;30447;48.742;8.972;2023-04-01T17:13:07;40.66;36.91;47.93;;
45109;Laerm;30447;48.742;8.972;2023-04-01T17:16:05;40.35;36.91;46.59;;
45109;Laerm;30447;48.742;8.972;2023-04-01T17:24:02;40.01;35.66;46.69;;
45109;Laerm;30447;48.742;8.972;2023-04-01T17:29:41;41.14;37.32;52.54;;
45109;Laerm;30447;48.742;8.972;2023-04-01T17:32:20;41.89;36.91;51.91;;
45109;Laerm;30447;48.742;8.972;2023-04-01T17:35:22;40.46;36.45;47.83;;
45109;Laerm;30447;48.742;8.972;2023-04-01T17:43:30;40.84;36.69;56.12;;
45109;Laerm;30447;48.742;8.972;2023-04-01T17:46:24;39.71;36.45;53.35;;
45109;Laerm;30447;48.742;8.972;2023-04-01T17:49:28;40.52;36.91;46.76;;
45109;Laerm;30447;48.742;8.972;2023-04-01T17:52:21;41.20;37.88;45.31;;
45109;Laerm;30447;48.742;8.972;2023-04-01T17:55:25;42.05;38.05;60.40;;
45109;Laerm;30447;48.742;8.972;2023-04-01T18:06:29;41.55;38.67;56.71;;
45109;Laerm;30447;48.742;8.972;2023-04-01T18:09:05;41.77;38.95;50.04;;
45109;Laerm;30447;48.742;8.972;2023-04-01T18:20:48;43.11;38.67;56.25;;
45109;Laerm;30447;48.742;8.972;2023-04-01T18:25:47;40.40;36.91;44.31;;
45109;Laerm;30447;48.742;8.972;2023-04-01T18:30:54;48.72;37.12;82.91;;
45109;Laerm;30447;48.742;8.972;2023-04-01T18:44:47;41.51;38.52;50.60;;
45109;Laerm;30447;48.742;8.972;2023-04-01T18:47:43;41.83;38.21;50.37;;
45109;Laerm;30447;48.742;8.972;2023-04-01T18:51:09;42.09;38.67;46.93;;
45109;Laerm;30447;48.742;8.972;2023-04-01T18:53:39;42.16;38.05;44.97;;
45109;Laerm;30447;48.742;8.972;2023-04-01T18:56:15;42.13;38.95;46.88;;
45109;Laerm;30447;48.742;8.972;2023-04-01T18:59:25;41.74;38.67;44.69;;
45109;Laerm;30447;48.742;8.972;2023-04-01T19:02:02;41.95;39.08;45.45;;
45109;Laerm;30447;48.742;8.972;2023-04-01T19:04:50;41.66;39.08;44.58;;
45109;Laerm;30447;48.742;8.972;2023-04-01T19:07:39;42.12;38.67;48.45;;
45109;Laerm;30447;48.742;8.972;2023-04-01T19:10:14;41.19;38.05;44.47;;
45109;Laerm;30447;48.742;8.972;2023-04-01T19:16:19;41.88;39.08;52.43;;
45109;Laerm;30447;48.742;8.972;2023-04-01T19:27:03;41.34;38.21;46.10;;
45109;Laerm;30447;48.742;8.972;2023-04-01T19:29:46;41.02;37.88;43.81;;
45109;Laerm;30447;48.742;8.972;2023-04-01T19:35:47;41.45;38.37;44.90;;
45109;Laerm;30447;48.742;8.972;2023-04-01T19:38:36;41.36;37.88;45.57;;
45109;Laerm;30447;48.742;8.972;2023-04-01T19:44:11;41.21;37.32;46.05;;
45109;Laerm;30447;48.742;8.972;2023-04-01T19:46:58;41.92;37.52;46.62;;
45109;Laerm;30447;48.742;8.972;2023-04-01T19:52:33;40.85;37.70;46.23;;
45109;Laerm;30447;48.742;8.972;2023-04-01T19:57:52;41.40;37.12;44.07;;
45109;Laerm;30447;48.742;8.972;2023-04-01T20:00:34;42.39;38.37;50.80;;
45109;Laerm;30447;48.742;8.972;2023-04-01T20:03:30;41.23;37.70;45.48;;
45109;Laerm;30447;48.742;8.972;2023-04-01T20:06:17;41.14;38.52;44.65;;
45109;Laerm;30447;48.742;8.972;2023-04-01T20:14:46;41.61;38.05;47.84;;
45109;Laerm;30447;48.742;8.972;2023-04-01T20:17:24;40.54;36.91;44.23;;
45109;Laerm;30447;48.742;8.972;2023-04-01T20:44:30;40.02;36.45;45.04;;
45109;Laerm;30447;48.742;8.972;2023-04-01T20:47:39;40.72;37.12;46.59;;
45109;Laerm;30447;48.742;8.972;2023-04-01T20:53:20;40.42;36.91;51.64;;
45109;Laerm;30447;48.742;8.972;2023-04-01T20:59:02;40.05;36.20;45.11;;
45109;Laerm;30447;48.742;8.972;2023-04-01T21:07:34;40.20;36.91;43.19;;
45109;Laerm;30447;48.742;8.972;2023-04-01T21:21:29;39.65;35.36;43.34;;
45109;Laerm;30447;48.742;8.972;2023-04-01T21:33:16;39.93;35.36;47.57;;
45109;Laerm;30447;48.742;8.972;2023-04-01T21:36:25;39.60;36.77;44.83;;
45109;Laerm;30447;48.742;8.972;2023-04-01T21:39:16;39.48;35.36;45.51;;
45109;Laerm;30447;48.742;8.972;2023-04-01T21:42:06;39.44;35.66;42.03;;
45109;Laerm;30447;48.742;8.972;2023-04-01T21:44:41;39.52;35.36;43.81;;
45109;Laerm;30447;48.742;8.972;2023-04-01T22:15:20;39.66;35.36;42.76;;
45109;Laerm;30447;48.742;8.972;2023-04-01T22:18:05;40.35;36.45;45.80;;
45109;Laerm;30447;48.742;8.972;2023-04-01T22:20:56;39.23;35.04;51.66;;
45109;Laerm;30447;48.742;8.972;2023-04-01T22:23:46;39.99;35.04;49.34;;
45109;Laerm;30447;48.742;8.972;2023-04-01T22:26:46;39.06;35.36;44.03;;
45109;Laerm;30447;48.742;8.972;2023-04-01T22:32:26;41.33;35.36;54.63;;
45109;Laerm;30447;48.742;8.972;2023-04-01T22:35:06;38.89;35.36;50.11;;
45109;Laerm;30447;48.742;8.972;2023-04-01T22:37:49;39.23;34.69;44.12;;
45109;Laerm;30447;48.742;8.972;2023-04-01T22:40:41;41.43;35.66;52.59;;
45109;Laerm;30447;48.742;8.972;2023-04-01T22:43:22;39.15;35.04;42.22;;
45109;Laerm;30447;48.742;8.972;2023-04-01T22:48:49;42.42;35.04;53.01;;
45109;Laerm;30447;48.742;8.972;2023-04-01T22:51:38;39.02;35.36;42.82;;
45109;Laerm;30447;48.742;8.972;2023-04-01T22:54:27;38.53;34.69;41.38;;
45109;Laerm;30447;48.742;8.972;2023-04-01T22:58:01;38.33;34.69;47.46;;
45109;Laerm;30447;48.742;8.972;2023-04-01T23:00:05;38.61;34.69;41.89;;
45109;Laerm;30447;48.742;8.972;2023-04-01T23:02:39;38.84;35.36;42.88;;
45109;Laerm;30447;48.742;8.972;2023-04-01T23:05:13;38.85;34.69;41.22;;
45109;Laerm;30447;48.742;8.972;2023-04-01T23:08:00;39.41;35.04;48.32;;
45109;Laerm;30447;48.742;8.972;2023-04-01T23:10:52;39.32;35.36;43.33;;
45109;Laerm;30447;48.742;8.972;2023-04-01T23:13:32;39.09;34.69;42.53;;
45109;Laerm;30447;48.742;8.972;2023-04-01T23:16:01;38.61;35.04;44.16;;
45109;Laerm;30447;48.742;8.972;2023-04-01T23:18:37;38.73;35.04;42.03;;
45109;Laerm;30447;48.742;8.972;2023-04-01T23:21:28;38.81;35.36;42.09;;
45109;Laerm;30447;48.742;8.972;2023-04-01T23:29:13;38.49;34.31;41.53;;
45109;Laerm;30447;48.742;8.972;2023-04-01T23:31:43;38.56;34.31;41.46;;
45109;Laerm;30447;48.742;8.972;2023-04-01T23:37:10;39.10;35.04;56.96;;
45109;Laerm;30447;48.742;8.972;2023-04-01T23:40:01;38.58;34.69;42.47;;
45109;Laerm;30447;48.742;8.972;2023-04-01T23:45:01;39.12;34.31;43.04;;
45109;Laerm;30447;48.742;8.972;2023-04-01T23:47:34;38.82;35.31;43.81;;
45109;Laerm;30447;48.742;8.972;2023-04-01T23:52:46;38.70;35.04;42.16;;
45109;Laerm;30447;48.742;8.972;2023-04-01T23:55:27;38.89;35.66;41.96;;
